sensor_id;sensor_type;location;lat;lon;timestamp;pressure;altitude;pressure_sealevel;temperature;humidity
40075;BME280;26529;51.530;11.754;2022-10-14T00:00:19;100137.78;;;19.33;57.82
40075;BME280;26529;51.530;11.754;2022-10-14T00:02:44;100136.84;;;19.34;57.63
40075;BME280;26529;51.530;11.754;2022-10-14T00:05:10;100134.41;;;19.31;57.43
40075;BME280;26529;51.530;11.754;2022-10-14T00:07:36;100137.06;;;19.31;57.42
40075;BME280;26529;51.530;11.754;2022-10-14T00:10:03;100139.72;;;19.31;57.68
40075;BME280;26529;51.530;11.754;2022-10-14T00:12:29;100138.09;;;19.28;57.70
40075;BME280;26529;51.530;11.754;2022-10-14T00:14:55;100137.25;;;19.28;57.57
40075;BME280;26529;51.530;11.754;2022-10-14T00:17:21;100135.44;;;19.28;57.80
40075;BME280;26529;51.530;11.754;2022-10-14T00:19:48;100135.53;;;19.27;57.66
40075;BME280;26529;51.530;11.754;2022-10-14T00:22:14;100134.72;;;19.26;57.55
40075;BME280;26529;51.530;11.754;2022-10-14T00:24:39;100137.25;;;19.28;57.58
40075;BME280;26529;51.530;11.754;2022-10-14T00:27:05;100135.44;;;19.28;57.46
40075;BME280;26529;51.530;11.754;2022-10-14T00:29:30;100132.78;;;19.28;57.66
40075;BME280;26529;51.530;11.754;2022-10-14T00:31:56;100132.78;;;19.28;57.46
40075;BME280;26529;51.530;11.754;2022-10-14T00:34:22;100133.75;;;19.27;57.47
40075;BME280;26529;51.530;11.754;2022-10-14T00:36:48;100131.19;;;19.25;57.54
40075;BME280;26529;51.530;11.754;2022-10-14T00:39:17;100129.38;;;19.26;57.36
40075;BME280;26529;51.530;11.754;2022-10-14T00:41:43;100133.84;;;19.25;57.49
40075;BME280;26529;51.530;11.754;2022-10-14T00:46:37;100130.44;;;19.23;57.43
40075;BME280;26529;51.530;11.754;2022-10-14T00:49:09;100131.28;;;19.24;57.35
40075;BME280;26529;51.530;11.754;2022-10-14T00:51:37;100136.59;;;19.24;57.37
40075;BME280;26529;51.530;11.754;2022-10-14T00:54:04;100133.94;;;19.24;57.34
40075;BME280;26529;51.530;11.754;2022-10-14T00:56:30;100134.06;;;19.22;57.30
40075;BME280;26529;51.530;11.754;2022-10-14T00:58:57;100135.84;;;19.22;57.30
40075;BME280;26529;51.530;11.754;2022-10-14T01:01:23;100135.03;;;19.21;57.30
40075;BME280;26529;51.530;11.754;2022-10-14T01:03:49;100144.78;;;19.21;57.19
40075;BME280;26529;51.530;11.754;2022-10-14T01:14:18;100136.81;;;19.21;57.01
40075;BME280;26529;51.530;11.754;2022-10-14T01:22:26;100138.59;;;19.20;57.11
40075;BME280;26529;51.530;11.754;2022-10-14T01:27:37;100135.03;;;19.21;56.90
40075;BME280;26529;51.530;11.754;2022-10-14T01:30:11;100133.28;;;19.20;56.89
40075;BME280;26529;51.530;11.754;2022-10-14T01:32:47;100133.28;;;19.20;56.72
40075;BME280;26529;51.530;11.754;2022-10-14T01:37:52;100133.41;;;19.19;57.00
40075;BME280;26529;51.530;11.754;2022-10-14T01:40:28;100129.97;;;19.17;56.87
40075;BME280;26529;51.530;11.754;2022-10-14T01:42:57;100129.97;;;19.17;56.85
40075;BME280;26529;51.530;11.754;2022-10-14T01:45:26;100125.53;;;19.17;56.99
40075;BME280;26529;51.530;11.754;2022-10-14T01:47:53;100127.44;;;19.15;56.68
40075;BME280;26529;51.530;11.754;2022-10-14T01:50:21;100116.81;;;19.15;56.80
40075;BME280;26529;51.530;11.754;2022-10-14T01:55:26;100109.78;;;19.14;56.95
40075;BME280;26529;51.530;11.754;2022-10-14T01:57:56;100108.06;;;19.13;56.63
40075;BME280;26529;51.530;11.754;2022-10-14T02:00:23;100112.56;;;19.13;56.65
40075;BME280;26529;51.530;11.754;2022-10-14T02:02:49;100109.78;;;19.14;56.67
40075;BME280;26529;51.530;11.754;2022-10-14T02:05:20;100108.94;;;19.14;56.58
40075;BME280;26529;51.530;11.754;2022-10-14T02:07:49;100109.78;;;19.14;56.63
40075;BME280;26529;51.530;11.754;2022-10-14T02:18:38;100095.75;;;19.12;56.58
40075;BME280;26529;51.530;11.754;2022-10-14T02:21:23;100096.63;;;19.13;56.65
40075;BME280;26529;51.530;11.754;2022-10-14T02:24:17;100094.91;;;19.11;56.69
40075;BME280;26529;51.530;11.754;2022-10-14T02:26:45;100097.44;;;19.13;56.35
40075;BME280;26529;51.530;11.754;2022-10-14T02:29:16;100086.81;;;19.13;56.63
40075;BME280;26529;51.530;11.754;2022-10-14T02:31:43;100096.69;;;19.11;56.33
40075;BME280;26529;51.530;11.754;2022-10-14T02:34:14;100094.03;;;19.11;56.51
40075;BME280;26529;51.530;11.754;2022-10-14T02:36:42;100095.75;;;19.12;56.36
40075;BME280;26529;51.530;11.754;2022-10-14T02:39:12;100087.88;;;19.10;56.50
40075;BME280;26529;51.530;11.754;2022-10-14T02:41:40;100080.84;;;19.09;56.38
40075;BME280;26529;51.530;11.754;2022-10-14T02:44:06;100085.34;;;19.09;56.38
40075;BME280;26529;51.530;11.754;2022-10-14T02:46:33;100085.34;;;19.09;56.31
40075;BME280;26529;51.530;11.754;2022-10-14T02:48:59;100080.03;;;19.09;56.59
40075;BME280;26529;51.530;11.754;2022-10-14T02:51:25;100073.00;;;19.08;56.42
40075;BME280;26529;51.530;11.754;2022-10-14T02:53:51;100072.03;;;19.09;56.44
40075;BME280;26529;51.530;11.754;2022-10-14T02:56:16;100070.22;;;19.09;56.32
40075;BME280;26529;51.530;11.754;2022-10-14T02:58:42;100065.03;;;19.08;56.08
40075;BME280;26529;51.530;11.754;2022-10-14T03:01:08;100061.50;;;19.07;56.32
40075;BME280;26529;51.530;11.754;2022-10-14T03:03:34;100062.38;;;19.08;56.28
40075;BME280;26529;51.530;11.754;2022-10-14T03:06:01;100060.66;;;19.07;56.32
40075;BME280;26529;51.530;11.754;2022-10-14T03:08:28;100065.97;;;19.07;56.33
40075;BME280;26529;51.530;11.754;2022-10-14T03:10:55;100063.44;;;19.05;56.33
40075;BME280;26529;51.530;11.754;2022-10-14T03:13:21;100070.44;;;19.06;56.35
40075;BME280;26529;51.530;11.754;2022-10-14T03:15:48;100072.03;;;19.09;56.25
40075;BME280;26529;51.530;11.754;2022-10-14T03:18:16;100068.63;;;19.07;56.31
40075;BME280;26529;51.530;11.754;2022-10-14T03:20:45;100063.22;;;19.08;56.21
40075;BME280;26529;51.530;11.754;2022-10-14T03:23:15;100065.97;;;19.07;56.28
40075;BME280;26529;51.530;11.754;2022-10-14T03:25:43;100065.97;;;19.07;56.12
40075;BME280;26529;51.530;11.754;2022-10-14T03:28:15;100070.34;;;19.08;56.10
40075;BME280;26529;51.530;11.754;2022-10-14T03:30:50;100062.38;;;19.08;56.11
40075;BME280;26529;51.530;11.754;2022-10-14T03:33:30;100061.50;;;19.07;56.11
40075;BME280;26529;51.530;11.754;2022-10-14T03:36:05;100061.50;;;19.07;55.94
40075;BME280;26529;51.530;11.754;2022-10-14T03:38:41;100067.69;;;19.08;56.01
40075;BME280;26529;51.530;11.754;2022-10-14T03:41:17;100071.28;;;19.07;56.01
40075;BME280;26529;51.530;11.754;2022-10-14T03:43:43;100065.97;;;19.07;55.92
40075;BME280;26529;51.530;11.754;2022-10-14T03:46:09;100065.97;;;19.07;55.89
40075;BME280;26529;51.530;11.754;2022-10-14T03:48:36;100060.66;;;19.07;55.91
40075;BME280;26529;51.530;11.754;2022-10-14T03:51:02;100058.13;;;19.05;55.82
40075;BME280;26529;51.530;11.754;2022-10-14T03:53:28;100057.34;;;19.03;56.00
40075;BME280;26529;51.530;11.754;2022-10-14T03:55:54;100057.44;;;19.02;56.03
40075;BME280;26529;51.530;11.754;2022-10-14T03:58:20;100059.22;;;19.01;56.10
40075;BME280;26529;51.530;11.754;2022-10-14T04:00:51;100060.09;;;19.02;56.03
40075;BME280;26529;51.530;11.754;2022-10-14T04:03:39;100054.88;;;19.00;56.12
40075;BME280;26529;51.530;11.754;2022-10-14T04:06:06;100046.81;;;19.02;56.11
40075;BME280;26529;51.530;11.754;2022-10-14T04:08:32;100051.19;;;19.03;55.78
40075;BME280;26529;51.530;11.754;2022-10-14T04:11:10;100048.53;;;19.03;56.01
40075;BME280;26529;51.530;11.754;2022-10-14T04:13:39;100043.28;;;19.01;55.72
40075;BME280;26529;51.530;11.754;2022-10-14T04:16:09;100042.34;;;19.02;55.68
40075;BME280;26529;51.530;11.754;2022-10-14T04:18:52;100040.56;;;19.03;55.94
40075;BME280;26529;51.530;11.754;2022-10-14T04:21:20;100032.66;;;19.01;55.80
40075;BME280;26529;51.530;11.754;2022-10-14T04:23:50;100031.78;;;19.01;55.73
40075;BME280;26529;51.530;11.754;2022-10-14T04:26:26;100030.00;;;19.01;55.71
40075;BME280;26529;51.530;11.754;2022-10-14T04:28:52;100034.44;;;19.01;55.83
40075;BME280;26529;51.530;11.754;2022-10-14T04:31:29;100030.88;;;19.02;55.95
40075;BME280;26529;51.530;11.754;2022-10-14T04:33:59;100022.13;;;18.99;55.84
40075;BME280;26529;51.530;11.754;2022-10-14T04:36:31;100031.06;;;18.98;55.71
40075;BME280;26529;51.530;11.754;2022-10-14T04:38:58;100025.75;;;18.98;55.82
40075;BME280;26529;51.530;11.754;2022-10-14T04:41:24;100026.69;;;18.97;55.86
40075;BME280;26529;51.530;11.754;2022-10-14T04:43:51;100024.91;;;18.98;55.75
40075;BME280;26529;51.530;11.754;2022-10-14T04:46:25;100024.03;;;18.97;55.77
40075;BME280;26529;51.530;11.754;2022-10-14T04:48:50;100023.19;;;18.97;55.80
40075;BME280;26529;51.530;11.754;2022-10-14T04:51:18;100027.66;;;18.96;55.85
40075;BME280;26529;51.530;11.754;2022-10-14T04:53:51;100017.75;;;18.98;55.84
40075;BME280;26529;51.530;11.754;2022-10-14T04:56:39;100012.44;;;18.98;55.65
40075;BME280;26529;51.530;11.754;2022-10-14T04:59:09;100011.63;;;18.98;55.70
40075;BME280;26529;51.530;11.754;2022-10-14T05:02:10;100013.41;;;18.97;55.75
40075;BME280;26529;51.530;11.754;2022-10-14T05:04:40;100010.84;;;18.96;55.61
40075;BME280;26529;51.530;11.754;2022-10-14T05:07:07;100013.41;;;18.97;55.64
40075;BME280;26529;51.530;11.754;2022-10-14T05:09:33;100014.28;;;18.98;55.52
40075;BME280;26529;51.530;11.754;2022-10-14T05:11:59;100006.41;;;18.96;55.65
40075;BME280;26529;51.530;11.754;2022-10-14T05:14:35;100004.69;;;18.95;55.70
40075;BME280;26529;51.530;11.754;2022-10-14T05:17:12;100007.44;;;18.94;55.48
40075;BME280;26529;51.530;11.754;2022-10-14T05:19:38;100011.81;;;18.95;55.52
40075;BME280;26529;51.530;11.754;2022-10-14T05:22:04;100004.78;;;18.94;55.37
40075;BME280;26529;51.530;11.754;2022-10-14T05:24:36;100007.44;;;18.94;55.54
40075;BME280;26529;51.530;11.754;2022-10-14T05:27:02;100011.81;;;18.95;55.57
40075;BME280;26529;51.530;11.754;2022-10-14T05:29:32;100012.69;;;18.95;55.63
40075;BME280;26529;51.530;11.754;2022-10-14T05:31:58;100008.31;;;18.94;55.55
40075;BME280;26529;51.530;11.754;2022-10-14T05:34:34;100013.63;;;18.94;55.44
40075;BME280;26529;51.530;11.754;2022-10-14T05:37:02;100011.91;;;18.93;55.85
40075;BME280;26529;51.530;11.754;2022-10-14T05:39:33;100017.22;;;18.93;55.57
40075;BME280;26529;51.530;11.754;2022-10-14T05:41:59;100018.09;;;18.94;55.63
40075;BME280;26529;51.530;11.754;2022-10-14T05:44:27;100008.31;;;18.94;55.55
40075;BME280;26529;51.530;11.754;2022-10-14T05:46:53;100009.16;;;18.95;55.19
40075;BME280;26529;51.530;11.754;2022-10-14T05:49:19;100011.19;;;18.64;53.94
40075;BME280;26529;51.530;11.754;2022-10-14T05:51:46;100023.66;;;18.49;54.62
40075;BME280;26529;51.530;11.754;2022-10-14T05:54:18;100025.25;;;18.24;54.42
40075;BME280;26529;51.530;11.754;2022-10-14T05:56:47;100027.72;;;18.12;54.46
40075;BME280;26529;51.530;11.754;2022-10-14T05:59:13;100028.19;;;18.04;54.79
40075;BME280;26529;51.530;11.754;2022-10-14T06:08:52;100022.78;;;17.77;55.52
40075;BME280;26529;51.530;11.754;2022-10-14T06:18:36;100029.59;;;17.52;55.05
40075;BME280;26529;51.530;11.754;2022-10-14T06:27:18;100022.13;;;17.73;55.33
40075;BME280;26529;51.530;11.754;2022-10-14T06:30:13;100033.41;;;17.77;55.05
40075;BME280;26529;51.530;11.754;2022-10-14T06:36:21;100030.44;;;17.82;55.08
40075;BME280;26529;51.530;11.754;2022-10-14T06:38:57;100036.63;;;17.82;55.12
40075;BME280;26529;51.530;11.754;2022-10-14T06:41:47;100040.03;;;17.84;55.11
40075;BME280;26529;51.530;11.754;2022-10-14T06:47:26;100038.13;;;17.86;54.89
40075;BME280;26529;51.530;11.754;2022-10-14T06:49:51;100036.41;;;17.85;54.77
40075;BME280;26529;51.530;11.754;2022-10-14T06:52:17;100041.56;;;17.88;55.18
40075;BME280;26529;51.530;11.754;2022-10-14T06:54:43;100047.50;;;17.92;54.92
40075;BME280;26529;51.530;11.754;2022-10-14T06:57:10;100040.38;;;17.93;54.96
40075;BME280;26529;51.530;11.754;2022-10-14T06:59:35;100046.00;;;17.88;55.15
40075;BME280;26529;51.530;11.754;2022-10-14T07:02:04;100040.78;;;17.86;55.14
40075;BME280;26529;51.530;11.754;2022-10-14T07:04:29;100040.69;;;17.88;55.18
40075;BME280;26529;51.530;11.754;2022-10-14T07:06:56;100032.72;;;17.88;54.99
40075;BME280;26529;51.530;11.754;2022-10-14T07:09:23;100033.59;;;17.88;55.12
40075;BME280;26529;51.530;11.754;2022-10-14T07:11:49;100036.25;;;17.88;55.19
40075;BME280;26529;51.530;11.754;2022-10-14T07:14:15;100038.91;;;17.88;54.94
40075;BME280;26529;51.530;11.754;2022-10-14T07:16:45;100040.59;;;17.89;55.25
40075;BME280;26529;51.530;11.754;2022-10-14T07:19:11;100038.03;;;17.88;55.18
40075;BME280;26529;51.530;11.754;2022-10-14T07:21:37;100041.34;;;17.92;55.28
40075;BME280;26529;51.530;11.754;2022-10-14T07:24:03;100043.44;;;18.01;55.41
40075;BME280;26529;51.530;11.754;2022-10-14T07:26:30;100041.63;;;18.01;55.15
40075;BME280;26529;51.530;11.754;2022-10-14T07:28:56;100034.72;;;17.99;55.03
40075;BME280;26529;51.530;11.754;2022-10-14T07:31:22;100037.56;;;17.96;55.40
40075;BME280;26529;51.530;11.754;2022-10-14T07:33:48;100038.59;;;17.93;54.91
40075;BME280;26529;51.530;11.754;2022-10-14T07:36:15;100039.44;;;17.65;55.76
40075;BME280;26529;51.530;11.754;2022-10-14T07:38:43;100038.47;;;17.51;55.93
40075;BME280;26529;51.530;11.754;2022-10-14T07:41:14;100038.47;;;17.51;55.86
40075;BME280;26529;51.530;11.754;2022-10-14T07:43:46;100028.63;;;17.39;56.33
40075;BME280;26529;51.530;11.754;2022-10-14T07:46:13;100035.34;;;17.30;56.37
40075;BME280;26529;51.530;11.754;2022-10-14T07:48:39;100028.97;;;17.32;56.40
40075;BME280;26529;51.530;11.754;2022-10-14T07:51:06;100031.31;;;17.22;56.72
40075;BME280;26529;51.530;11.754;2022-10-14T07:53:33;100033.44;;;17.32;56.72
40075;BME280;26529;51.530;11.754;2022-10-14T07:55:59;100032.41;;;17.34;56.53
40075;BME280;26529;51.530;11.754;2022-10-14T07:58:29;100028.72;;;17.37;56.38
40075;BME280;26529;51.530;11.754;2022-10-14T08:00:56;100034.59;;;17.42;56.25
40075;BME280;26529;51.530;11.754;2022-10-14T08:03:23;100035.84;;;17.51;55.86
40075;BME280;26529;51.530;11.754;2022-10-14T08:05:49;100040.75;;;17.57;55.67
40075;BME280;26529;51.530;11.754;2022-10-14T08:08:23;100040.47;;;17.62;55.71
40075;BME280;26529;51.530;11.754;2022-10-14T08:10:49;100040.59;;;17.60;55.88
40075;BME280;26529;51.530;11.754;2022-10-14T08:13:14;100042.88;;;17.67;55.61
40075;BME280;26529;51.530;11.754;2022-10-14T08:15:43;100041.72;;;17.56;55.85
40075;BME280;26529;51.530;11.754;2022-10-14T08:18:09;100043.78;;;17.51;55.76
40075;BME280;26529;51.530;11.754;2022-10-14T08:20:36;100038.31;;;17.54;55.75
40075;BME280;26529;51.530;11.754;2022-10-14T08:23:02;100041.91;;;17.53;55.68
40075;BME280;26529;51.530;11.754;2022-10-14T08:25:30;100034.34;;;17.61;55.56
40075;BME280;26529;51.530;11.754;2022-10-14T08:27:56;100033.97;;;17.68;54.92
40075;BME280;26529;51.530;11.754;2022-10-14T08:30:23;100037.16;;;17.73;55.10
40075;BME280;26529;51.530;11.754;2022-10-14T08:32:49;100030.53;;;17.66;55.14
40075;BME280;26529;51.530;11.754;2022-10-14T08:35:15;100032.44;;;17.63;54.88
40075;BME280;26529;51.530;11.754;2022-10-14T08:37:40;100030.75;;;17.62;54.67
40075;BME280;26529;51.530;11.754;2022-10-14T08:40:07;100028.84;;;17.65;55.16
40075;BME280;26529;51.530;11.754;2022-10-14T08:45:29;100028.84;;;17.65;55.05
40075;BME280;26529;51.530;11.754;2022-10-14T08:47:58;100028.84;;;17.65;54.85
40075;BME280;26529;51.530;11.754;2022-10-14T08:50:32;100034.34;;;17.61;55.08
40075;BME280;26529;51.530;11.754;2022-10-14T08:55:42;100034.81;;;17.68;54.90
40075;BME280;26529;51.530;11.754;2022-10-14T08:58:22;100021.97;;;17.76;54.96
40075;BME280;26529;51.530;11.754;2022-10-14T09:00:51;100028.09;;;17.77;54.82
40075;BME280;26529;51.530;11.754;2022-10-14T09:03:21;100022.78;;;17.77;54.80
40075;BME280;26529;51.530;11.754;2022-10-14T09:06:00;100024.59;;;17.76;54.84
40075;BME280;26529;51.530;11.754;2022-10-14T09:08:31;100025.66;;;17.74;54.86
40075;BME280;26529;51.530;11.754;2022-10-14T09:10:58;100023.91;;;17.73;55.36
40075;BME280;26529;51.530;11.754;2022-10-14T09:13:36;100026.56;;;17.73;55.08
40075;BME280;26529;51.530;11.754;2022-10-14T09:16:17;100028.28;;;17.74;54.73
40075;BME280;26529;51.530;11.754;2022-10-14T09:18:51;100020.88;;;17.79;54.77
40075;BME280;26529;51.530;11.754;2022-10-14T09:21:36;100017.75;;;17.87;54.62
40075;BME280;26529;51.530;11.754;2022-10-14T09:24:12;100019.75;;;17.83;54.34
40075;BME280;26529;51.530;11.754;2022-10-14T09:26:41;100020.72;;;17.82;54.34
40075;BME280;26529;51.530;11.754;2022-10-14T09:29:28;100016.44;;;17.80;54.30
40075;BME280;26529;51.530;11.754;2022-10-14T09:31:58;100010.09;;;17.82;54.30
40075;BME280;26529;51.530;11.754;2022-10-14T09:34:47;100005.53;;;17.99;54.20
40075;BME280;26529;51.530;11.754;2022-10-14T09:37:35;100010.09;;;18.11;53.97
40075;BME280;26529;51.530;11.754;2022-10-14T09:42:47;100009.72;;;18.17;53.74
40075;BME280;26529;51.530;11.754;2022-10-14T09:45:17;100000.63;;;18.22;53.37
40075;BME280;26529;51.530;11.754;2022-10-14T09:50:21;99995.09;;;18.25;53.64
40075;BME280;26529;51.530;11.754;2022-10-14T09:52:52;100002.69;;;18.16;53.90
40075;BME280;26529;51.530;11.754;2022-10-14T09:55:20;100002.88;;;18.13;54.05
40075;BME280;26529;51.530;11.754;2022-10-14T09:58:00;99995.22;;;18.09;54.16
40075;BME280;26529;51.530;11.754;2022-10-14T10:00:30;100001.56;;;18.06;54.28
40075;BME280;26529;51.530;11.754;2022-10-14T10:02:57;99999.88;;;18.05;54.60
40075;BME280;26529;51.530;11.754;2022-10-14T10:05:31;99999.19;;;18.01;54.61
40075;BME280;26529;51.530;11.754;2022-10-14T10:08:16;99995.56;;;18.02;54.71
40075;BME280;26529;51.530;11.754;2022-10-14T10:13:32;99986.22;;;18.11;54.03
40075;BME280;26529;51.530;11.754;2022-10-14T10:16:01;99996.75;;;18.13;54.00
40075;BME280;26529;51.530;11.754;2022-10-14T10:18:27;99988.75;;;18.27;53.46
40075;BME280;26529;51.530;11.754;2022-10-14T10:21:15;99985.34;;;18.25;53.49
40075;BME280;26529;51.530;11.754;2022-10-14T10:26:21;99979.00;;;18.28;53.13
40075;BME280;26529;51.530;11.754;2022-10-14T10:28:52;99977.06;;;18.30;53.74
40075;BME280;26529;51.530;11.754;2022-10-14T10:34:35;99972.69;;;18.84;51.36
40075;BME280;26529;51.530;11.754;2022-10-14T10:40:21;99967.78;;;19.44;50.61
40075;BME280;26529;51.530;11.754;2022-10-14T10:43:15;99960.94;;;19.14;51.27
40075;BME280;26529;51.530;11.754;2022-10-14T10:51:42;99948.38;;;18.90;52.20
40075;BME280;26529;51.530;11.754;2022-10-14T10:59:55;99943.78;;;18.79;52.88
40075;BME280;26529;51.530;11.754;2022-10-14T11:05:42;99950.06;;;18.78;53.01
40075;BME280;26529;51.530;11.754;2022-10-14T11:16:52;99927.31;;;18.87;52.75
40075;BME280;26529;51.530;11.754;2022-10-14T11:22:15;99913.69;;;18.79;51.98
40075;BME280;26529;51.530;11.754;2022-10-14T11:36:17;99906.44;;;18.55;52.20
40075;BME280;26529;51.530;11.754;2022-10-14T11:46:45;99890.34;;;18.84;52.28
40075;BME280;26529;51.530;11.754;2022-10-14T11:49:26;99886.72;;;18.85;52.37
40075;BME280;26529;51.530;11.754;2022-10-14T11:52:05;99883.09;;;18.86;52.82
40075;BME280;26529;51.530;11.754;2022-10-14T11:54:46;99878.78;;;18.98;52.66
40075;BME280;26529;51.530;11.754;2022-10-14T12:00:10;99873.72;;;19.08;53.10
40075;BME280;26529;51.530;11.754;2022-10-14T12:03:03;99878.25;;;19.06;52.87
40075;BME280;26529;51.530;11.754;2022-10-14T12:05:40;99877.19;;;19.08;52.96
40075;BME280;26529;51.530;11.754;2022-10-14T12:08:19;99867.63;;;19.06;53.11
40075;BME280;26529;51.530;11.754;2022-10-14T12:11:10;99870.28;;;19.19;52.60
40075;BME280;26529;51.530;11.754;2022-10-14T12:13:44;99866.50;;;19.47;51.73
40075;BME280;26529;51.530;11.754;2022-10-14T12:16:20;99866.94;;;19.41;52.06
40075;BME280;26529;51.530;11.754;2022-10-14T12:18:54;99854.94;;;19.35;51.94
40075;BME280;26529;51.530;11.754;2022-10-14T12:24:24;99846.34;;;19.32;52.75
40075;BME280;26529;51.530;11.754;2022-10-14T12:26:59;99839.97;;;19.34;52.62
40075;BME280;26529;51.530;11.754;2022-10-14T12:29:48;99837.84;;;19.27;52.96
40075;BME280;26529;51.530;11.754;2022-10-14T12:32:23;99839.03;;;19.22;53.20
40075;BME280;26529;51.530;11.754;2022-10-14T12:34:54;99835.50;;;19.22;53.11
40075;BME280;26529;51.530;11.754;2022-10-14T12:39:54;99840.50;;;19.27;53.08
40075;BME280;26529;51.530;11.754;2022-10-14T12:42:59;99831.03;;;19.35;53.20
40075;BME280;26529;51.530;11.754;2022-10-14T12:45:27;99831.88;;;19.36;53.11
40075;BME280;26529;51.530;11.754;2022-10-14T12:48:24;99828.91;;;19.28;53.48
40075;BME280;26529;51.530;11.754;2022-10-14T12:50:57;99830.38;;;19.32;53.50
40075;BME280;26529;51.530;11.754;2022-10-14T12:53:31;99825.06;;;19.32;53.43
40075;BME280;26529;51.530;11.754;2022-10-14T12:56:00;99822.50;;;19.30;53.43
40075;BME280;26529;51.530;11.754;2022-10-14T12:58:37;99825.06;;;19.32;53.70
40075;BME280;26529;51.530;11.754;2022-10-14T13:01:16;99824.88;;;19.35;53.58
40075;BME280;26529;51.530;11.754;2022-10-14T13:03:46;99821.44;;;19.33;53.18
40075;BME280;26529;51.530;11.754;2022-10-14T13:09:28;99824.34;;;19.30;53.78
40075;BME280;26529;51.530;11.754;2022-10-14T13:14:27;99821.25;;;19.36;53.88
40075;BME280;26529;51.530;11.754;2022-10-14T13:16:56;99819.25;;;19.64;53.17
40075;BME280;26529;51.530;11.754;2022-10-14T13:19:42;99816.75;;;19.74;52.41
40075;BME280;26529;51.530;11.754;2022-10-14T13:25:00;99808.34;;;19.80;52.72
40075;BME280;26529;51.530;11.754;2022-10-14T13:33:09;99807.91;;;20.22;52.08
40075;BME280;26529;51.530;11.754;2022-10-14T13:38:29;99796.78;;;20.28;51.09
40075;BME280;26529;51.530;11.754;2022-10-14T13:40:57;99802.81;;;20.19;49.81
40075;BME280;26529;51.530;11.754;2022-10-14T13:46:04;99792.31;;;19.69;50.79
40075;BME280;26529;51.530;11.754;2022-10-14T13:48:33;99791.56;;;19.66;51.12
40075;BME280;26529;51.530;11.754;2022-10-14T13:51:25;99784.66;;;19.64;51.50
40075;BME280;26529;51.530;11.754;2022-10-14T13:53:56;99798.19;;;19.61;51.34
40075;BME280;26529;51.530;11.754;2022-10-14T13:56:25;99790.34;;;19.59;51.87
40075;BME280;26529;51.530;11.754;2022-10-14T13:58:54;99789.47;;;19.59;51.93
40075;BME280;26529;51.530;11.754;2022-10-14T14:01:22;99792.38;;;19.56;51.99
40075;BME280;26529;51.530;11.754;2022-10-14T14:03:51;99786.28;;;19.53;51.97
40075;BME280;26529;51.530;11.754;2022-10-14T14:06:19;99788.22;;;19.51;51.98
40075;BME280;26529;51.530;11.754;2022-10-14T14:11:23;99773.13;;;19.52;52.59
40075;BME280;26529;51.530;11.754;2022-10-14T14:16:23;99769.50;;;19.77;52.40
40075;BME280;26529;51.530;11.754;2022-10-14T14:18:50;99769.00;;;19.72;52.47
40075;BME280;26529;51.530;11.754;2022-10-14T14:21:22;99773.06;;;19.65;52.93
40075;BME280;26529;51.530;11.754;2022-10-14T14:23:50;99766.66;;;19.68;52.63
40075;BME280;26529;51.530;11.754;2022-10-14T14:26:16;99760.03;;;19.73;52.64
40075;BME280;26529;51.530;11.754;2022-10-14T14:28:45;99761.97;;;19.71;52.56
40075;BME280;26529;51.530;11.754;2022-10-14T14:31:16;99769.22;;;19.69;52.65
40075;BME280;26529;51.530;11.754;2022-10-14T14:33:46;99755.88;;;19.58;52.77
40075;BME280;26529;51.530;11.754;2022-10-14T14:36:15;99752.03;;;19.62;52.70
40075;BME280;26529;51.530;11.754;2022-10-14T14:38:53;99746.91;;;19.59;52.86
40075;BME280;26529;51.530;11.754;2022-10-14T14:41:25;99751.00;;;19.51;52.95
40075;BME280;26529;51.530;11.754;2022-10-14T14:43:54;99744.81;;;19.51;53.09
40075;BME280;26529;51.530;11.754;2022-10-14T14:46:30;99746.66;;;19.50;53.32
40075;BME280;26529;51.530;11.754;2022-10-14T14:49:00;99737.28;;;19.45;53.16
40075;BME280;26529;51.530;11.754;2022-10-14T14:51:35;99739.00;;;19.46;53.47
40075;BME280;26529;51.530;11.754;2022-10-14T14:54:03;99740.09;;;19.43;53.54
40075;BME280;26529;51.530;11.754;2022-10-14T14:56:38;99741.06;;;19.42;53.48
40075;BME280;26529;51.530;11.754;2022-10-14T14:59:23;99743.72;;;19.42;53.42
40075;BME280;26529;51.530;11.754;2022-10-14T15:01:50;99743.81;;;19.41;53.83
40075;BME280;26529;51.530;11.754;2022-10-14T15:04:19;99743.19;;;19.37;53.50
40075;BME280;26529;51.530;11.754;2022-10-14T15:06:59;99739.81;;;19.35;53.50
40075;BME280;26529;51.530;11.754;2022-10-14T15:09:34;99749.22;;;19.39;54.30
40075;BME280;26529;51.530;11.754;2022-10-14T15:12:02;99751.56;;;19.44;53.33
40075;BME280;26529;51.530;11.754;2022-10-14T15:14:38;99745.75;;;19.38;53.44
40075;BME280;26529;51.530;11.754;2022-10-14T15:17:24;99736.34;;;19.70;54.15
40075;BME280;26529;51.530;11.754;2022-10-14T15:19:59;99734.13;;;19.64;53.56
40075;BME280;26529;51.530;11.754;2022-10-14T15:30:30;99721.22;;;19.46;54.00
40075;BME280;26529;51.530;11.754;2022-10-14T15:33:02;99710.38;;;19.49;54.15
40075;BME280;26529;51.530;11.754;2022-10-14T15:35:30;99710.94;;;19.42;54.16
40075;BME280;26529;51.530;11.754;2022-10-14T15:37:56;99705.97;;;19.37;54.17
40075;BME280;26529;51.530;11.754;2022-10-14T15:40:26;99697.53;;;19.43;53.33
40075;BME280;26529;51.530;11.754;2022-10-14T15:42:52;99688.59;;;19.44;53.92
40075;BME280;26529;51.530;11.754;2022-10-14T15:45:17;99687.00;;;19.42;53.94
40075;BME280;26529;51.530;11.754;2022-10-14T15:47:44;99678.06;;;19.43;53.93
40075;BME280;26529;51.530;11.754;2022-10-14T15:50:15;99672.59;;;19.33;53.99